Pagrindinis puslapis
METAR-TAF:

METAR-TAF

Oro uostai :

Mora–Siljan

Mora, Švedija

platuma: 60-57-31N, ilguma: 14-30-40E, Aukštis: 193 m

Dabartinis oras

Ataskaita buvo paskelbta 28 minutes, ne 10:20 UTC
Vėjas 10 kt iš Vakarų/Pietvakarių, svyruoja nuo Pietų ir Vakarų
Temperatūra 6°C
Drėgmė 70%
Slėgis 987 hPa
Matomumas 10 km arba daugiau

METAR: ESKM 181020Z AUTO 24010KT 180V280 9999 FEW028/// BKN130/// 06/01 Q0987

Laikas: 11:48 (10:48 UTC)


TAF: trūkstamas

Orai ataskaitas ir orų prognozės (METAR, TAF).

turimą stotys yra geltonos ir raudonos taškus žemėlapyje.

Perkelti pele per norėdami pamatyti stoties vardą.

Tada spustelėkite, norėdami matyti oro stebėjimo ir prognozės.

Norėdami pakeisti žemėlapį: spustelėkite ant žalios mygtukų su juodo kryžiaus žemyn,; žalią mygtuką su brūkšneliu, jei norite nutolinti; arba žalių rodyklių gretimoms žemėlapius.


METAR-TAF: